sensor_id;sensor_type;location;lat;lon;timestamp;temperature;humidity
11532;DHT22;5822;51.000;5.874;2023-08-07T00:00:33;15.60;99.90
11532;DHT22;5822;51.000;5.874;2023-08-07T00:02:59;15.60;99.90
11532;DHT22;5822;51.000;5.874;2023-08-07T00:05:25;15.60;99.90
11532;DHT22;5822;51.000;5.874;2023-08-07T00:07:50;15.50;99.90
11532;DHT22;5822;51.000;5.874;2023-08-07T00:10:16;15.50;99.90
11532;DHT22;5822;51.000;5.874;2023-08-07T00:12:42;15.60;99.90
11532;DHT22;5822;51.000;5.874;2023-08-07T00:15:09;15.60;99.90
11532;DHT22;5822;51.000;5.874;2023-08-07T00:17:35;15.60;99.90
11532;DHT22;5822;51.000;5.874;2023-08-07T00:20:00;15.60;99.90
11532;DHT22;5822;51.000;5.874;2023-08-07T00:22:26;15.60;99.90
11532;DHT22;5822;51.000;5.874;2023-08-07T00:24:52;15.60;99.90
11532;DHT22;5822;51.000;5.874;2023-08-07T00:27:17;15.60;99.90
11532;DHT22;5822;51.000;5.874;2023-08-07T00:29:43;15.60;99.90
11532;DHT22;5822;51.000;5.874;2023-08-07T00:32:08;15.60;99.90
11532;DHT22;5822;51.000;5.874;2023-08-07T00:34:34;15.60;99.90
11532;DHT22;5822;51.000;5.874;2023-08-07T00:37:00;15.60;99.90
11532;DHT22;5822;51.000;5.874;2023-08-07T00:39:25;15.60;99.90
11532;DHT22;5822;51.000;5.874;2023-08-07T00:41:51;15.60;99.90
11532;DHT22;5822;51.000;5.874;2023-08-07T00:44:17;15.60;99.90
11532;DHT22;5822;51.000;5.874;2023-08-07T00:46:43;15.60;99.90
11532;DHT22;5822;51.000;5.874;2023-08-07T00:49:11;15.60;99.90
11532;DHT22;5822;51.000;5.874;2023-08-07T00:51:38;15.60;99.90
11532;DHT22;5822;51.000;5.874;2023-08-07T00:54:05;15.60;99.90
11532;DHT22;5822;51.000;5.874;2023-08-07T00:56:31;15.60;99.90
11532;DHT22;5822;51.000;5.874;2023-08-07T00:58:58;15.60;99.90
11532;DHT22;5822;51.000;5.874;2023-08-07T01:01:24;15.70;99.90
11532;DHT22;5822;51.000;5.874;2023-08-07T01:03:50;15.70;99.90
11532;DHT22;5822;51.000;5.874;2023-08-07T01:06:16;15.70;99.90
11532;DHT22;5822;51.000;5.874;2023-08-07T01:08:42;15.70;99.90
11532;DHT22;5822;51.000;5.874;2023-08-07T01:14:26;15.80;99.90
11532;DHT22;5822;51.000;5.874;2023-08-07T01:17:07;15.70;99.90
11532;DHT22;5822;51.000;5.874;2023-08-07T01:19:35;15.60;99.90
11532;DHT22;5822;51.000;5.874;2023-08-07T01:22:08;15.70;99.90
11532;DHT22;5822;51.000;5.874;2023-08-07T01:24:34;15.60;99.90
11532;DHT22;5822;51.000;5.874;2023-08-07T01:32:23;15.60;99.90
11532;DHT22;5822;51.000;5.874;2023-08-07T01:34:50;15.60;99.90
11532;DHT22;5822;51.000;5.874;2023-08-07T01:37:17;15.60;99.90
11532;DHT22;5822;51.000;5.874;2023-08-07T01:39:44;15.60;99.90
11532;DHT22;5822;51.000;5.874;2023-08-07T01:42:11;15.60;99.90
11532;DHT22;5822;51.000;5.874;2023-08-07T01:44:37;15.50;99.90
11532;DHT22;5822;51.000;5.874;2023-08-07T01:47:03;15.50;99.90
11532;DHT22;5822;51.000;5.874;2023-08-07T01:49:29;15.50;99.90
11532;DHT22;5822;51.000;5.874;2023-08-07T01:51:55;15.60;99.90
11532;DHT22;5822;51.000;5.874;2023-08-07T01:54:23;15.50;99.90
11532;DHT22;5822;51.000;5.874;2023-08-07T01:56:49;15.60;99.90
11532;DHT22;5822;51.000;5.874;2023-08-07T01:59:14;15.60;99.90
11532;DHT22;5822;51.000;5.874;2023-08-07T02:01:40;15.60;99.90
11532;DHT22;5822;51.000;5.874;2023-08-07T02:04:06;15.60;99.90
11532;DHT22;5822;51.000;5.874;2023-08-07T02:06:32;15.60;99.90
11532;DHT22;5822;51.000;5.874;2023-08-07T02:08:58;15.50;99.90
11532;DHT22;5822;51.000;5.874;2023-08-07T02:11:23;15.60;99.90
11532;DHT22;5822;51.000;5.874;2023-08-07T02:13:49;15.60;99.90
11532;DHT22;5822;51.000;5.874;2023-08-07T02:16:15;15.50;99.90
11532;DHT22;5822;51.000;5.874;2023-08-07T02:18:40;15.50;99.90
11532;DHT22;5822;51.000;5.874;2023-08-07T02:21:06;15.50;99.90
11532;DHT22;5822;51.000;5.874;2023-08-07T02:23:31;15.60;99.90
11532;DHT22;5822;51.000;5.874;2023-08-07T02:25:57;15.60;99.90
11532;DHT22;5822;51.000;5.874;2023-08-07T02:28:23;15.60;99.90
11532;DHT22;5822;51.000;5.874;2023-08-07T02:30:48;15.60;99.90
11532;DHT22;5822;51.000;5.874;2023-08-07T02:33:16;15.60;99.90
11532;DHT22;5822;51.000;5.874;2023-08-07T02:35:42;15.60;99.90
11532;DHT22;5822;51.000;5.874;2023-08-07T02:38:08;15.60;99.90
11532;DHT22;5822;51.000;5.874;2023-08-07T02:40:33;15.50;99.90
11532;DHT22;5822;51.000;5.874;2023-08-07T02:42:59;15.50;99.90
11532;DHT22;5822;51.000;5.874;2023-08-07T02:45:25;15.40;99.90
11532;DHT22;5822;51.000;5.874;2023-08-07T02:47:51;15.30;99.90
11532;DHT22;5822;51.000;5.874;2023-08-07T02:50:16;15.30;99.90
11532;DHT22;5822;51.000;5.874;2023-08-07T02:52:42;15.40;99.90
11532;DHT22;5822;51.000;5.874;2023-08-07T02:55:08;15.40;99.90
11532;DHT22;5822;51.000;5.874;2023-08-07T02:57:34;15.40;99.90
11532;DHT22;5822;51.000;5.874;2023-08-07T02:59:59;15.40;99.90
11532;DHT22;5822;51.000;5.874;2023-08-07T03:02:25;15.50;99.90
11532;DHT22;5822;51.000;5.874;2023-08-07T03:04:50;15.40;99.90
11532;DHT22;5822;51.000;5.874;2023-08-07T03:07:16;15.40;99.90
11532;DHT22;5822;51.000;5.874;2023-08-07T03:09:45;15.50;99.90
11532;DHT22;5822;51.000;5.874;2023-08-07T03:12:12;15.50;99.90
11532;DHT22;5822;51.000;5.874;2023-08-07T03:14:38;15.50;99.90
11532;DHT22;5822;51.000;5.874;2023-08-07T03:17:04;15.50;99.90
11532;DHT22;5822;51.000;5.874;2023-08-07T03:19:30;15.60;99.90
11532;DHT22;5822;51.000;5.874;2023-08-07T03:21:55;15.50;99.90
11532;DHT22;5822;51.000;5.874;2023-08-07T03:24:21;15.60;99.90
11532;DHT22;5822;51.000;5.874;2023-08-07T03:26:47;15.50;99.90
11532;DHT22;5822;51.000;5.874;2023-08-07T03:29:14;15.50;99.90
11532;DHT22;5822;51.000;5.874;2023-08-07T03:31:40;15.40;99.90
11532;DHT22;5822;51.000;5.874;2023-08-07T03:34:05;15.40;99.90
11532;DHT22;5822;51.000;5.874;2023-08-07T03:36:31;15.40;99.90
11532;DHT22;5822;51.000;5.874;2023-08-07T03:38:57;15.50;99.90
11532;DHT22;5822;51.000;5.874;2023-08-07T03:41:22;15.50;99.90
11532;DHT22;5822;51.000;5.874;2023-08-07T03:43:48;15.50;99.90
11532;DHT22;5822;51.000;5.874;2023-08-07T03:46:14;15.50;99.90
11532;DHT22;5822;51.000;5.874;2023-08-07T03:48:39;15.50;99.90
11532;DHT22;5822;51.000;5.874;2023-08-07T03:51:06;15.60;99.90
11532;DHT22;5822;51.000;5.874;2023-08-07T03:53:34;15.60;99.90
11532;DHT22;5822;51.000;5.874;2023-08-07T03:56:03;15.50;99.90
11532;DHT22;5822;51.000;5.874;2023-08-07T03:58:28;15.50;99.90
11532;DHT22;5822;51.000;5.874;2023-08-07T04:00:55;15.50;99.90
11532;DHT22;5822;51.000;5.874;2023-08-07T04:03:21;15.60;99.90
11532;DHT22;5822;51.000;5.874;2023-08-07T04:05:47;15.50;99.90
11532;DHT22;5822;51.000;5.874;2023-08-07T04:08:16;15.50;99.90
11532;DHT22;5822;51.000;5.874;2023-08-07T04:10:42;15.50;99.90
11532;DHT22;5822;51.000;5.874;2023-08-07T04:13:08;15.50;99.90
11532;DHT22;5822;51.000;5.874;2023-08-07T04:15:33;15.60;99.90
11532;DHT22;5822;51.000;5.874;2023-08-07T04:17:59;15.60;99.90
11532;DHT22;5822;51.000;5.874;2023-08-07T04:20:25;15.50;99.90
11532;DHT22;5822;51.000;5.874;2023-08-07T04:22:50;15.50;99.90
11532;DHT22;5822;51.000;5.874;2023-08-07T04:25:16;15.60;99.90
11532;DHT22;5822;51.000;5.874;2023-08-07T04:27:42;15.50;99.90
11532;DHT22;5822;51.000;5.874;2023-08-07T04:30:08;15.50;99.90
11532;DHT22;5822;51.000;5.874;2023-08-07T04:32:33;15.40;99.90
11532;DHT22;5822;51.000;5.874;2023-08-07T04:34:59;15.40;99.90
11532;DHT22;5822;51.000;5.874;2023-08-07T04:37:25;15.30;99.90
11532;DHT22;5822;51.000;5.874;2023-08-07T04:39:53;15.30;99.90
11532;DHT22;5822;51.000;5.874;2023-08-07T04:42:19;15.40;99.90
11532;DHT22;5822;51.000;5.874;2023-08-07T04:44:45;15.30;99.90
11532;DHT22;5822;51.000;5.874;2023-08-07T04:47:11;15.30;99.90
11532;DHT22;5822;51.000;5.874;2023-08-07T04:49:36;15.30;99.90
11532;DHT22;5822;51.000;5.874;2023-08-07T04:52:02;15.30;99.90
11532;DHT22;5822;51.000;5.874;2023-08-07T04:54:28;15.30;99.90
11532;DHT22;5822;51.000;5.874;2023-08-07T04:56:53;15.30;99.90
11532;DHT22;5822;51.000;5.874;2023-08-07T04:59:19;15.40;99.90
11532;DHT22;5822;51.000;5.874;2023-08-07T05:01:45;15.40;99.90
11532;DHT22;5822;51.000;5.874;2023-08-07T05:04:10;15.50;99.90
11532;DHT22;5822;51.000;5.874;2023-08-07T05:06:36;15.50;99.90
11532;DHT22;5822;51.000;5.874;2023-08-07T05:09:02;15.50;99.90
11532;DHT22;5822;51.000;5.874;2023-08-07T05:11:28;15.40;99.90
11532;DHT22;5822;51.000;5.874;2023-08-07T05:13:54;15.40;99.90
11532;DHT22;5822;51.000;5.874;2023-08-07T05:16:19;15.40;99.90
11532;DHT22;5822;51.000;5.874;2023-08-07T05:18:45;15.40;99.90
11532;DHT22;5822;51.000;5.874;2023-08-07T05:21:11;15.30;99.90
11532;DHT22;5822;51.000;5.874;2023-08-07T05:23:36;15.40;99.90
11532;DHT22;5822;51.000;5.874;2023-08-07T05:26:02;15.40;99.90
11532;DHT22;5822;51.000;5.874;2023-08-07T05:28:28;15.40;99.90
11532;DHT22;5822;51.000;5.874;2023-08-07T05:30:54;15.40;99.90
11532;DHT22;5822;51.000;5.874;2023-08-07T05:33:19;15.50;99.90
11532;DHT22;5822;51.000;5.874;2023-08-07T05:35:45;15.50;99.90
11532;DHT22;5822;51.000;5.874;2023-08-07T05:38:11;15.50;99.90
11532;DHT22;5822;51.000;5.874;2023-08-07T05:40:37;15.40;99.90
11532;DHT22;5822;51.000;5.874;2023-08-07T05:43:03;15.40;99.90
11532;DHT22;5822;51.000;5.874;2023-08-07T05:45:28;15.40;99.90
11532;DHT22;5822;51.000;5.874;2023-08-07T05:47:54;15.40;99.90
11532;DHT22;5822;51.000;5.874;2023-08-07T05:50:20;15.40;99.90
11532;DHT22;5822;51.000;5.874;2023-08-07T05:52:47;15.40;99.90
11532;DHT22;5822;51.000;5.874;2023-08-07T05:55:13;15.40;99.90
11532;DHT22;5822;51.000;5.874;2023-08-07T05:57:38;15.50;99.90
11532;DHT22;5822;51.000;5.874;2023-08-07T06:00:05;15.50;99.90
11532;DHT22;5822;51.000;5.874;2023-08-07T06:02:30;15.40;99.90
11532;DHT22;5822;51.000;5.874;2023-08-07T06:04:56;15.50;99.90
11532;DHT22;5822;51.000;5.874;2023-08-07T06:07:22;15.50;99.90
11532;DHT22;5822;51.000;5.874;2023-08-07T06:09:47;15.50;99.90
11532;DHT22;5822;51.000;5.874;2023-08-07T06:12:13;15.50;99.90
11532;DHT22;5822;51.000;5.874;2023-08-07T06:14:39;15.50;99.90
11532;DHT22;5822;51.000;5.874;2023-08-07T06:17:04;15.50;99.90
11532;DHT22;5822;51.000;5.874;2023-08-07T06:19:31;15.50;99.90
11532;DHT22;5822;51.000;5.874;2023-08-07T06:21:56;15.50;99.90
11532;DHT22;5822;51.000;5.874;2023-08-07T06:24:25;15.50;99.90
11532;DHT22;5822;51.000;5.874;2023-08-07T06:26:51;15.50;99.90
11532;DHT22;5822;51.000;5.874;2023-08-07T06:29:16;15.50;99.90
11532;DHT22;5822;51.000;5.874;2023-08-07T06:31:42;15.50;99.90
11532;DHT22;5822;51.000;5.874;2023-08-07T06:34:08;15.50;99.90
11532;DHT22;5822;51.000;5.874;2023-08-07T06:36:34;15.50;99.90
11532;DHT22;5822;51.000;5.874;2023-08-07T06:39:00;15.60;99.90
11532;DHT22;5822;51.000;5.874;2023-08-07T06:41:25;15.60;99.90
11532;DHT22;5822;51.000;5.874;2023-08-07T06:43:51;15.60;99.90
11532;DHT22;5822;51.000;5.874;2023-08-07T06:46:17;15.70;99.90
11532;DHT22;5822;51.000;5.874;2023-08-07T06:48:43;15.70;99.90
11532;DHT22;5822;51.000;5.874;2023-08-07T06:51:09;15.70;99.90
11532;DHT22;5822;51.000;5.874;2023-08-07T06:53:35;15.70;99.90
11532;DHT22;5822;51.000;5.874;2023-08-07T06:56:00;15.80;99.90
11532;DHT22;5822;51.000;5.874;2023-08-07T06:58:26;15.80;99.90
11532;DHT22;5822;51.000;5.874;2023-08-07T07:00:51;15.80;99.90
11532;DHT22;5822;51.000;5.874;2023-08-07T07:03:17;15.90;99.90
11532;DHT22;5822;51.000;5.874;2023-08-07T07:05:43;15.90;99.90
11532;DHT22;5822;51.000;5.874;2023-08-07T07:08:08;16.00;99.90
11532;DHT22;5822;51.000;5.874;2023-08-07T07:10:34;16.00;99.90
11532;DHT22;5822;51.000;5.874;2023-08-07T07:12:59;16.10;99.90
11532;DHT22;5822;51.000;5.874;2023-08-07T07:15:25;16.10;99.90
11532;DHT22;5822;51.000;5.874;2023-08-07T07:17:51;16.10;99.90
11532;DHT22;5822;51.000;5.874;2023-08-07T07:20:17;16.10;99.90
11532;DHT22;5822;51.000;5.874;2023-08-07T07:22:42;16.10;99.90
11532;DHT22;5822;51.000;5.874;2023-08-07T07:25:08;16.00;99.90
11532;DHT22;5822;51.000;5.874;2023-08-07T07:27:34;16.10;99.90
11532;DHT22;5822;51.000;5.874;2023-08-07T07:30:00;16.10;99.90
11532;DHT22;5822;51.000;5.874;2023-08-07T07:32:25;16.10;99.90
11532;DHT22;5822;51.000;5.874;2023-08-07T07:34:51;16.10;99.90
11532;DHT22;5822;51.000;5.874;2023-08-07T07:37:17;16.10;99.90
11532;DHT22;5822;51.000;5.874;2023-08-07T07:39:43;16.10;99.90
11532;DHT22;5822;51.000;5.874;2023-08-07T07:42:08;16.10;99.90
11532;DHT22;5822;51.000;5.874;2023-08-07T07:44:34;16.20;99.90
11532;DHT22;5822;51.000;5.874;2023-08-07T07:47:01;16.20;99.90
11532;DHT22;5822;51.000;5.874;2023-08-07T07:49:27;16.20;99.90
11532;DHT22;5822;51.000;5.874;2023-08-07T07:51:53;16.30;99.90
11532;DHT22;5822;51.000;5.874;2023-08-07T07:54:19;16.30;99.90
11532;DHT22;5822;51.000;5.874;2023-08-07T07:56:44;16.30;99.90
11532;DHT22;5822;51.000;5.874;2023-08-07T07:59:11;16.30;99.90
11532;DHT22;5822;51.000;5.874;2023-08-07T08:01:37;16.30;99.90
11532;DHT22;5822;51.000;5.874;2023-08-07T08:04:03;16.40;99.90
11532;DHT22;5822;51.000;5.874;2023-08-07T08:06:29;16.40;99.90
11532;DHT22;5822;51.000;5.874;2023-08-07T08:08:56;16.50;99.90
11532;DHT22;5822;51.000;5.874;2023-08-07T08:11:22;16.50;99.90
11532;DHT22;5822;51.000;5.874;2023-08-07T08:13:47;16.50;99.90
11532;DHT22;5822;51.000;5.874;2023-08-07T08:16:13;16.50;99.90
11532;DHT22;5822;51.000;5.874;2023-08-07T08:18:39;16.60;99.90
11532;DHT22;5822;51.000;5.874;2023-08-07T08:21:04;16.50;99.90
11532;DHT22;5822;51.000;5.874;2023-08-07T08:23:32;16.60;99.90
11532;DHT22;5822;51.000;5.874;2023-08-07T08:25:57;16.60;99.90
11532;DHT22;5822;51.000;5.874;2023-08-07T08:28:23;16.60;99.90
11532;DHT22;5822;51.000;5.874;2023-08-07T08:30:49;16.50;99.90
11532;DHT22;5822;51.000;5.874;2023-08-07T08:33:14;16.50;99.90
11532;DHT22;5822;51.000;5.874;2023-08-07T08:35:40;16.60;99.90
11532;DHT22;5822;51.000;5.874;2023-08-07T08:38:06;16.60;99.90
11532;DHT22;5822;51.000;5.874;2023-08-07T08:40:33;16.60;99.90
11532;DHT22;5822;51.000;5.874;2023-08-07T08:43:00;16.60;99.90
11532;DHT22;5822;51.000;5.874;2023-08-07T08:45:27;16.70;99.90
11532;DHT22;5822;51.000;5.874;2023-08-07T08:47:56;16.70;99.90
11532;DHT22;5822;51.000;5.874;2023-08-07T08:50:23;16.60;99.90
11532;DHT22;5822;51.000;5.874;2023-08-07T08:52:51;16.70;99.90
11532;DHT22;5822;51.000;5.874;2023-08-07T08:55:20;16.70;99.90
11532;DHT22;5822;51.000;5.874;2023-08-07T08:57:46;16.80;99.90
11532;DHT22;5822;51.000;5.874;2023-08-07T09:00:14;16.80;99.90
11532;DHT22;5822;51.000;5.874;2023-08-07T09:02:53;16.90;99.90
11532;DHT22;5822;51.000;5.874;2023-08-07T09:05:20;16.90;99.90
11532;DHT22;5822;51.000;5.874;2023-08-07T09:07:47;16.90;99.90
11532;DHT22;5822;51.000;5.874;2023-08-07T09:10:14;16.90;99.90
11532;DHT22;5822;51.000;5.874;2023-08-07T09:12:54;16.90;99.90
11532;DHT22;5822;51.000;5.874;2023-08-07T09:15:23;16.80;99.90
11532;DHT22;5822;51.000;5.874;2023-08-07T09:17:51;16.90;99.90
11532;DHT22;5822;51.000;5.874;2023-08-07T09:20:18;17.00;99.90
11532;DHT22;5822;51.000;5.874;2023-08-07T09:22:45;17.00;99.90
11532;DHT22;5822;51.000;5.874;2023-08-07T09:25:11;17.00;99.90
11532;DHT22;5822;51.000;5.874;2023-08-07T09:27:37;17.10;99.90
11532;DHT22;5822;51.000;5.874;2023-08-07T09:30:08;17.10;99.90
11532;DHT22;5822;51.000;5.874;2023-08-07T09:32:35;17.10;99.90
11532;DHT22;5822;51.000;5.874;2023-08-07T09:35:03;17.10;99.90
11532;DHT22;5822;51.000;5.874;2023-08-07T09:37:30;17.10;99.90
11532;DHT22;5822;51.000;5.874;2023-08-07T09:39:55;17.10;99.90
11532;DHT22;5822;51.000;5.874;2023-08-07T09:42:21;17.20;99.90
11532;DHT22;5822;51.000;5.874;2023-08-07T09:44:47;17.20;99.90
11532;DHT22;5822;51.000;5.874;2023-08-07T09:47:15;17.20;99.90
11532;DHT22;5822;51.000;5.874;2023-08-07T09:49:41;17.20;99.90
11532;DHT22;5822;51.000;5.874;2023-08-07T09:52:08;17.30;99.90
11532;DHT22;5822;51.000;5.874;2023-08-07T09:54:34;17.30;99.90
11532;DHT22;5822;51.000;5.874;2023-08-07T09:57:02;17.40;99.90
11532;DHT22;5822;51.000;5.874;2023-08-07T09:59:28;17.40;99.90
11532;DHT22;5822;51.000;5.874;2023-08-07T10:01:55;17.50;99.90
11532;DHT22;5822;51.000;5.874;2023-08-07T10:04:21;17.50;99.90
11532;DHT22;5822;51.000;5.874;2023-08-07T10:06:48;17.40;99.90
11532;DHT22;5822;51.000;5.874;2023-08-07T10:09:14;17.40;99.90
11532;DHT22;5822;51.000;5.874;2023-08-07T10:11:40;17.40;99.90
11532;DHT22;5822;51.000;5.874;2023-08-07T10:14:06;17.40;99.90
11532;DHT22;5822;51.000;5.874;2023-08-07T10:16:33;17.30;99.90
11532;DHT22;5822;51.000;5.874;2023-08-07T10:19:05;17.30;99.90
11532;DHT22;5822;51.000;5.874;2023-08-07T10:21:35;17.30;99.90
11532;DHT22;5822;51.000;5.874;2023-08-07T10:24:04;17.30;99.90
11532;DHT22;5822;51.000;5.874;2023-08-07T10:26:32;17.40;99.90
11532;DHT22;5822;51.000;5.874;2023-08-07T10:28:59;17.50;99.90
11532;DHT22;5822;51.000;5.874;2023-08-07T10:31:26;17.50;99.90
11532;DHT22;5822;51.000;5.874;2023-08-07T10:33:53;17.40;99.90
11532;DHT22;5822;51.000;5.874;2023-08-07T10:36:18;17.50;99.90
11532;DHT22;5822;51.000;5.874;2023-08-07T10:38:49;17.50;99.90
11532;DHT22;5822;51.000;5.874;2023-08-07T10:41:18;17.50;99.90
11532;DHT22;5822;51.000;5.874;2023-08-07T10:43:44;17.60;99.90
11532;DHT22;5822;51.000;5.874;2023-08-07T10:46:20;17.60;99.90
11532;DHT22;5822;51.000;5.874;2023-08-07T10:48:54;17.60;99.90
11532;DHT22;5822;51.000;5.874;2023-08-07T10:51:29;17.60;99.90
11532;DHT22;5822;51.000;5.874;2023-08-07T10:53:56;17.70;99.90
11532;DHT22;5822;51.000;5.874;2023-08-07T10:56:32;17.80;99.90
11532;DHT22;5822;51.000;5.874;2023-08-07T10:58:57;17.80;99.90
11532;DHT22;5822;51.000;5.874;2023-08-07T11:01:40;17.80;99.90
11532;DHT22;5822;51.000;5.874;2023-08-07T11:04:14;17.90;99.90
11532;DHT22;5822;51.000;5.874;2023-08-07T11:06:41;17.90;99.90
11532;DHT22;5822;51.000;5.874;2023-08-07T11:09:08;18.00;99.90
11532;DHT22;5822;51.000;5.874;2023-08-07T11:11:45;18.00;99.90
11532;DHT22;5822;51.000;5.874;2023-08-07T11:14:13;18.10;99.90
11532;DHT22;5822;51.000;5.874;2023-08-07T11:16:40;18.20;99.90
11532;DHT22;5822;51.000;5.874;2023-08-07T11:19:06;18.20;99.90
11532;DHT22;5822;51.000;5.874;2023-08-07T11:21:33;18.20;99.90
11532;DHT22;5822;51.000;5.874;2023-08-07T11:23:59;18.20;99.90
11532;DHT22;5822;51.000;5.874;2023-08-07T11:26:25;18.20;99.90
11532;DHT22;5822;51.000;5.874;2023-08-07T11:28:53;18.20;99.90
11532;DHT22;5822;51.000;5.874;2023-08-07T11:31:19;18.20;99.90
11532;DHT22;5822;51.000;5.874;2023-08-07T11:33:45;18.20;99.90
11532;DHT22;5822;51.000;5.874;2023-08-07T11:36:11;18.20;99.90
11532;DHT22;5822;51.000;5.874;2023-08-07T11:38:40;18.20;99.90
11532;DHT22;5822;51.000;5.874;2023-08-07T11:41:08;18.20;99.90
11532;DHT22;5822;51.000;5.874;2023-08-07T11:43:35;18.10;99.90
11532;DHT22;5822;51.000;5.874;2023-08-07T11:46:02;18.20;99.90
11532;DHT22;5822;51.000;5.874;2023-08-07T11:48:29;18.20;99.90
11532;DHT22;5822;51.000;5.874;2023-08-07T11:50:55;18.30;99.90
11532;DHT22;5822;51.000;5.874;2023-08-07T11:53:21;18.30;99.90
11532;DHT22;5822;51.000;5.874;2023-08-07T11:58:17;18.40;99.90
11532;DHT22;5822;51.000;5.874;2023-08-07T12:00:46;18.50;99.90
11532;DHT22;5822;51.000;5.874;2023-08-07T12:03:29;18.40;99.90
11532;DHT22;5822;51.000;5.874;2023-08-07T12:05:58;18.40;99.90
11532;DHT22;5822;51.000;5.874;2023-08-07T12:08:30;18.40;99.90
11532;DHT22;5822;51.000;5.874;2023-08-07T12:10:57;18.40;99.90
11532;DHT22;5822;51.000;5.874;2023-08-07T12:13:26;18.50;99.90
11532;DHT22;5822;51.000;5.874;2023-08-07T12:15:58;18.50;99.90
11532;DHT22;5822;51.000;5.874;2023-08-07T12:18:26;18.50;99.90
11532;DHT22;5822;51.000;5.874;2023-08-07T12:21:02;18.60;99.90
11532;DHT22;5822;51.000;5.874;2023-08-07T12:23:31;18.60;99.90
11532;DHT22;5822;51.000;5.874;2023-08-07T12:25:58;18.70;99.90
11532;DHT22;5822;51.000;5.874;2023-08-07T12:28:23;18.70;99.90
11532;DHT22;5822;51.000;5.874;2023-08-07T12:30:50;18.70;99.90
11532;DHT22;5822;51.000;5.874;2023-08-07T12:33:16;18.70;99.90
11532;DHT22;5822;51.000;5.874;2023-08-07T12:35:42;18.60;99.90
11532;DHT22;5822;51.000;5.874;2023-08-07T12:38:08;18.60;99.90
11532;DHT22;5822;51.000;5.874;2023-08-07T12:40:35;18.60;99.90
11532;DHT22;5822;51.000;5.874;2023-08-07T12:43:04;18.60;99.90
11532;DHT22;5822;51.000;5.874;2023-08-07T12:45:30;18.60;99.90
11532;DHT22;5822;51.000;5.874;2023-08-07T12:47:56;18.60;99.90
11532;DHT22;5822;51.000;5.874;2023-08-07T12:50:21;18.70;99.90
11532;DHT22;5822;51.000;5.874;2023-08-07T12:52:47;18.70;99.90
11532;DHT22;5822;51.000;5.874;2023-08-07T12:55:13;18.60;99.90
11532;DHT22;5822;51.000;5.874;2023-08-07T12:57:43;18.50;99.90
11532;DHT22;5822;51.000;5.874;2023-08-07T13:00:12;18.60;99.90
11532;DHT22;5822;51.000;5.874;2023-08-07T13:02:45;18.60;99.90
11532;DHT22;5822;51.000;5.874;2023-08-07T13:05:11;18.60;99.90
11532;DHT22;5822;51.000;5.874;2023-08-07T13:07:38;18.60;99.90
11532;DHT22;5822;51.000;5.874;2023-08-07T13:10:05;18.70;99.90
11532;DHT22;5822;51.000;5.874;2023-08-07T13:12:34;18.70;99.90
11532;DHT22;5822;51.000;5.874;2023-08-07T13:15:00;18.80;99.90
11532;DHT22;5822;51.000;5.874;2023-08-07T13:17:26;18.90;99.90
11532;DHT22;5822;51.000;5.874;2023-08-07T13:19:52;18.90;99.90
11532;DHT22;5822;51.000;5.874;2023-08-07T13:22:17;19.10;99.90
11532;DHT22;5822;51.000;5.874;2023-08-07T13:24:43;19.00;99.90
11532;DHT22;5822;51.000;5.874;2023-08-07T13:27:09;19.10;99.90
11532;DHT22;5822;51.000;5.874;2023-08-07T13:29:34;19.20;99.90
11532;DHT22;5822;51.000;5.874;2023-08-07T13:32:01;19.30;99.90
11532;DHT22;5822;51.000;5.874;2023-08-07T13:34:29;19.50;99.90
11532;DHT22;5822;51.000;5.874;2023-08-07T13:36:54;19.70;99.90
11532;DHT22;5822;51.000;5.874;2023-08-07T13:39:20;19.90;99.90
11532;DHT22;5822;51.000;5.874;2023-08-07T13:41:46;20.00;99.90
11532;DHT22;5822;51.000;5.874;2023-08-07T13:44:12;20.10;99.90
11532;DHT22;5822;51.000;5.874;2023-08-07T13:46:38;20.20;99.90
11532;DHT22;5822;51.000;5.874;2023-08-07T13:49:03;20.20;99.90
11532;DHT22;5822;51.000;5.874;2023-08-07T13:51:29;20.20;99.90
11532;DHT22;5822;51.000;5.874;2023-08-07T13:53:55;20.20;99.90
11532;DHT22;5822;51.000;5.874;2023-08-07T13:56:20;20.30;99.90
11532;DHT22;5822;51.000;5.874;2023-08-07T13:58:46;20.40;99.90
11532;DHT22;5822;51.000;5.874;2023-08-07T14:01:12;20.40;99.90
11532;DHT22;5822;51.000;5.874;2023-08-07T14:03:37;20.50;99.90
11532;DHT22;5822;51.000;5.874;2023-08-07T14:06:03;20.70;99.90
11532;DHT22;5822;51.000;5.874;2023-08-07T14:08:29;20.70;99.90
11532;DHT22;5822;51.000;5.874;2023-08-07T14:10:54;20.70;99.90
11532;DHT22;5822;51.000;5.874;2023-08-07T14:13:20;20.90;99.90
11532;DHT22;5822;51.000;5.874;2023-08-07T14:15:46;20.90;99.90
11532;DHT22;5822;51.000;5.874;2023-08-07T14:18:12;21.00;99.90
11532;DHT22;5822;51.000;5.874;2023-08-07T14:20:40;21.10;99.90
11532;DHT22;5822;51.000;5.874;2023-08-07T14:23:06;21.30;99.90
11532;DHT22;5822;51.000;5.874;2023-08-07T14:25:31;21.30;99.90
11532;DHT22;5822;51.000;5.874;2023-08-07T14:27:57;21.40;99.90
11532;DHT22;5822;51.000;5.874;2023-08-07T14:30:23;21.40;99.90
11532;DHT22;5822;51.000;5.874;2023-08-07T14:32:49;21.50;99.90
11532;DHT22;5822;51.000;5.874;2023-08-07T14:35:15;21.50;99.90
11532;DHT22;5822;51.000;5.874;2023-08-07T14:37:40;21.50;99.90
11532;DHT22;5822;51.000;5.874;2023-08-07T14:40:07;21.60;99.90
11532;DHT22;5822;51.000;5.874;2023-08-07T14:42:32;21.70;99.90
11532;DHT22;5822;51.000;5.874;2023-08-07T14:44:58;21.70;99.90
11532;DHT22;5822;51.000;5.874;2023-08-07T14:47:25;21.60;99.90
11532;DHT22;5822;51.000;5.874;2023-08-07T14:49:51;21.50;99.90
11532;DHT22;5822;51.000;5.874;2023-08-07T14:52:16;21.40;99.90
11532;DHT22;5822;51.000;5.874;2023-08-07T14:54:42;21.40;99.90
11532;DHT22;5822;51.000;5.874;2023-08-07T14:57:08;21.40;99.90
11532;DHT22;5822;51.000;5.874;2023-08-07T14:59:35;21.40;99.90
11532;DHT22;5822;51.000;5.874;2023-08-07T15:02:01;21.40;99.90
11532;DHT22;5822;51.000;5.874;2023-08-07T15:04:30;21.50;99.90
11532;DHT22;5822;51.000;5.874;2023-08-07T15:06:56;21.40;99.90
11532;DHT22;5822;51.000;5.874;2023-08-07T15:09:22;21.30;99.90
11532;DHT22;5822;51.000;5.874;2023-08-07T15:11:48;21.10;99.90
11532;DHT22;5822;51.000;5.874;2023-08-07T15:14:14;21.00;99.90
11532;DHT22;5822;51.000;5.874;2023-08-07T15:16:39;20.90;99.90
11532;DHT22;5822;51.000;5.874;2023-08-07T15:19:05;20.80;99.90
11532;DHT22;5822;51.000;5.874;2023-08-07T15:21:31;20.70;99.90
11532;DHT22;5822;51.000;5.874;2023-08-07T15:23:57;20.70;99.90
11532;DHT22;5822;51.000;5.874;2023-08-07T15:26:22;20.70;99.90
11532;DHT22;5822;51.000;5.874;2023-08-07T15:28:48;20.70;99.90
11532;DHT22;5822;51.000;5.874;2023-08-07T15:31:14;20.80;99.90
11532;DHT22;5822;51.000;5.874;2023-08-07T15:33:40;20.90;99.90
11532;DHT22;5822;51.000;5.874;2023-08-07T15:36:06;20.90;99.90
11532;DHT22;5822;51.000;5.874;2023-08-07T15:38:31;21.00;99.90
11532;DHT22;5822;51.000;5.874;2023-08-07T15:41:03;21.10;99.90
11532;DHT22;5822;51.000;5.874;2023-08-07T15:43:29;21.10;99.90
11532;DHT22;5822;51.000;5.874;2023-08-07T15:45:55;21.10;99.90
11532;DHT22;5822;51.000;5.874;2023-08-07T15:48:21;21.10;99.90
11532;DHT22;5822;51.000;5.874;2023-08-07T15:50:48;21.10;99.90